Collison, Illinois
Current Conditions -  °F | °C
As of 3:55 AM on Tuesday 21 Oct 2014 (Local Time) from KDNV Reporting Station
Overcast Overcast  
Wind Chill: 46°   Ceiling: 5000
Heat Index: 47°   Visibility: 7mi
Dew Point: 46°   Wind: 5mph
Humidity: 96%   Direction: 300°WNW
Pressure: 29.99"   Gusts: NA
Location:  40.23°N, 87.8°W
Report Text: KDNV 210855Z AUTO 30004KT 7SM OVC050 09/08 A2999 RMK AO2 T00860080
Loading
Personal Weather Stations






























Interactive Weather Map
Tropical Storm Tracking
New forecast layout! Learn more

10-Day Weather Forecast

Advertisements
Track Severe Weather on mobile